Terminal Aerodrome Forecast
Issued by NWS Flagstaff, AZ

Home | Current Version | Previous Version | Text Only | Print | Product List | Glossary On
Versions: 1 2 3 4 5 6 7 8 9 10 11 12 13 14 15 16 17 18
129
FTUS45 KFGZ 290357 AAA
TAFINW
TAF AMD
KINW 290357Z 2904/2924 33010KT P6SM BKN080
     FM290600 28016G25KT P6SM SKC=

USA.gov is the U.S. government's official web portal to all federal, state and local government web resources and services.